sensor_id;sensor_type;location;lat;lon;timestamp;P1;durP1;ratioP1;P2;durP2;ratioP2
37409;SDS011;23275;48.914;12.566;2024-03-23T00:54:41;18.45;;;10.57;;
37409;SDS011;23275;48.914;12.566;2024-03-23T00:57:07;18.88;;;12.07;;
37409;SDS011;23275;48.914;12.566;2024-03-23T00:59:32;17.63;;;11.15;;
37409;SDS011;23275;48.914;12.566;2024-03-23T01:01:58;19.05;;;11.48;;
37409;SDS011;23275;48.914;12.566;2024-03-23T01:04:24;17.08;;;11.27;;
37409;SDS011;23275;48.914;12.566;2024-03-23T01:06:49;17.38;;;10.88;;
37409;SDS011;23275;48.914;12.566;2024-03-23T01:09:15;17.08;;;11.02;;
37409;SDS011;23275;48.914;12.566;2024-03-23T01:11:41;17.73;;;11.60;;
37409;SDS011;23275;48.914;12.566;2024-03-23T01:14:06;19.17;;;12.30;;
37409;SDS011;23275;48.914;12.566;2024-03-23T01:16:32;18.85;;;12.35;;
37409;SDS011;23275;48.914;12.566;2024-03-23T01:18:57;23.23;;;12.02;;
37409;SDS011;23275;48.914;12.566;2024-03-23T01:21:23;19.05;;;12.00;;
37409;SDS011;23275;48.914;12.566;2024-03-23T01:23:49;22.73;;;12.55;;
37409;SDS011;23275;48.914;12.566;2024-03-23T01:26:14;18.73;;;12.00;;
37409;SDS011;23275;48.914;12.566;2024-03-23T01:28:40;17.17;;;11.20;;
37409;SDS011;23275;48.914;12.566;2024-03-23T01:31:06;17.88;;;12.07;;
37409;SDS011;23275;48.914;12.566;2024-03-23T01:33:31;21.45;;;12.55;;
37409;SDS011;23275;48.914;12.566;2024-03-23T01:35:57;20.27;;;11.63;;
37409;SDS011;23275;48.914;12.566;2024-03-23T01:38:22;20.25;;;13.00;;
37409;SDS011;23275;48.914;12.566;2024-03-23T01:40:48;20.55;;;12.90;;
37409;SDS011;23275;48.914;12.566;2024-03-23T01:43:14;16.60;;;11.52;;
37409;SDS011;23275;48.914;12.566;2024-03-23T01:45:39;19.33;;;12.88;;
37409;SDS011;23275;48.914;12.566;2024-03-23T01:48:05;19.30;;;12.75;;
37409;SDS011;23275;48.914;12.566;2024-03-23T01:50:32;19.98;;;12.13;;
37409;SDS011;23275;48.914;12.566;2024-03-23T01:53:04;19.85;;;11.35;;
37409;SDS011;23275;48.914;12.566;2024-03-23T01:57:57;17.77;;;12.10;;
37409;SDS011;23275;48.914;12.566;2024-03-23T02:00:22;16.92;;;11.68;;
37409;SDS011;23275;48.914;12.566;2024-03-23T02:02:48;19.10;;;11.95;;
37409;SDS011;23275;48.914;12.566;2024-03-23T02:05:14;19.75;;;12.35;;
37409;SDS011;23275;48.914;12.566;2024-03-23T02:07:40;19.27;;;13.13;;
37409;SDS011;23275;48.914;12.566;2024-03-23T02:10:07;18.88;;;12.60;;
37409;SDS011;23275;48.914;12.566;2024-03-23T02:12:33;18.27;;;11.98;;
37409;SDS011;23275;48.914;12.566;2024-03-23T02:14:59;19.63;;;13.02;;
37409;SDS011;23275;48.914;12.566;2024-03-23T02:17:25;19.88;;;12.48;;
37409;SDS011;23275;48.914;12.566;2024-03-23T02:19:50;18.63;;;11.70;;
37409;SDS011;23275;48.914;12.566;2024-03-23T02:22:16;18.02;;;12.25;;
37409;SDS011;23275;48.914;12.566;2024-03-23T02:24:42;20.10;;;11.07;;
37409;SDS011;23275;48.914;12.566;2024-03-23T02:27:07;19.13;;;11.82;;
37409;SDS011;23275;48.914;12.566;2024-03-23T02:29:33;18.50;;;11.93;;
37409;SDS011;23275;48.914;12.566;2024-03-23T02:31:59;19.50;;;12.45;;
37409;SDS011;23275;48.914;12.566;2024-03-23T02:34:25;17.20;;;11.98;;
37409;SDS011;23275;48.914;12.566;2024-03-23T02:36:50;19.42;;;12.48;;
37409;SDS011;23275;48.914;12.566;2024-03-23T02:39:16;20.17;;;12.07;;
37409;SDS011;23275;48.914;12.566;2024-03-23T02:41:41;20.70;;;11.68;;
37409;SDS011;23275;48.914;12.566;2024-03-23T02:44:07;17.05;;;11.38;;
37409;SDS011;23275;48.914;12.566;2024-03-23T02:46:33;15.57;;;10.75;;
37409;SDS011;23275;48.914;12.566;2024-03-23T02:48:58;18.30;;;11.40;;
37409;SDS011;23275;48.914;12.566;2024-03-23T02:51:24;20.65;;;12.15;;
37409;SDS011;23275;48.914;12.566;2024-03-23T02:53:49;17.63;;;11.60;;
37409;SDS011;23275;48.914;12.566;2024-03-23T02:56:15;16.20;;;11.70;;
37409;SDS011;23275;48.914;12.566;2024-03-23T02:58:42;16.70;;;11.50;;
37409;SDS011;23275;48.914;12.566;2024-03-23T03:01:08;18.52;;;12.10;;
37409;SDS011;23275;48.914;12.566;2024-03-23T03:03:33;18.67;;;12.25;;
37409;SDS011;23275;48.914;12.566;2024-03-23T03:05:59;20.98;;;12.23;;
37409;SDS011;23275;48.914;12.566;2024-03-23T03:08:24;19.10;;;11.63;;
37409;SDS011;23275;48.914;12.566;2024-03-23T03:10:50;18.63;;;12.52;;
37409;SDS011;23275;48.914;12.566;2024-03-23T03:13:16;19.67;;;12.18;;
37409;SDS011;23275;48.914;12.566;2024-03-23T03:15:42;20.67;;;12.98;;
37409;SDS011;23275;48.914;12.566;2024-03-23T03:18:09;22.35;;;12.90;;
37409;SDS011;23275;48.914;12.566;2024-03-23T03:20:38;22.10;;;12.32;;
37409;SDS011;23275;48.914;12.566;2024-03-23T03:23:04;21.17;;;12.90;;
37409;SDS011;23275;48.914;12.566;2024-03-23T03:25:30;21.05;;;12.32;;
37409;SDS011;23275;48.914;12.566;2024-03-23T03:27:55;15.35;;;10.55;;
37409;SDS011;23275;48.914;12.566;2024-03-23T03:30:21;19.98;;;13.50;;
37409;SDS011;23275;48.914;12.566;2024-03-23T03:32:47;21.38;;;13.45;;
37409;SDS011;23275;48.914;12.566;2024-03-23T03:35:12;20.38;;;13.05;;
37409;SDS011;23275;48.914;12.566;2024-03-23T03:37:38;19.25;;;13.52;;
37409;SDS011;23275;48.914;12.566;2024-03-23T03:40:03;22.23;;;14.00;;
37409;SDS011;23275;48.914;12.566;2024-03-23T03:42:29;19.38;;;12.90;;
37409;SDS011;23275;48.914;12.566;2024-03-23T03:44:55;22.92;;;13.77;;
37409;SDS011;23275;48.914;12.566;2024-03-23T03:47:20;22.70;;;14.32;;
37409;SDS011;23275;48.914;12.566;2024-03-23T03:49:47;20.35;;;12.70;;
37409;SDS011;23275;48.914;12.566;2024-03-23T03:52:12;26.10;;;13.85;;
37409;SDS011;23275;48.914;12.566;2024-03-23T03:54:38;21.92;;;13.70;;
37409;SDS011;23275;48.914;12.566;2024-03-23T03:57:03;21.40;;;13.00;;
37409;SDS011;23275;48.914;12.566;2024-03-23T03:59:29;19.58;;;12.77;;
37409;SDS011;23275;48.914;12.566;2024-03-23T04:01:55;19.08;;;12.23;;
37409;SDS011;23275;48.914;12.566;2024-03-23T04:04:20;21.08;;;13.23;;
37409;SDS011;23275;48.914;12.566;2024-03-23T04:06:47;20.52;;;13.15;;
37409;SDS011;23275;48.914;12.566;2024-03-23T04:09:13;18.60;;;12.73;;
37409;SDS011;23275;48.914;12.566;2024-03-23T04:11:38;21.75;;;12.95;;
37409;SDS011;23275;48.914;12.566;2024-03-23T04:14:04;20.65;;;12.45;;
37409;SDS011;23275;48.914;12.566;2024-03-23T04:16:31;19.85;;;11.88;;
37409;SDS011;23275;48.914;12.566;2024-03-23T04:19:00;18.45;;;11.60;;
37409;SDS011;23275;48.914;12.566;2024-03-23T04:21:26;20.70;;;13.10;;
37409;SDS011;23275;48.914;12.566;2024-03-23T04:23:51;20.17;;;12.35;;
37409;SDS011;23275;48.914;12.566;2024-03-23T04:26:17;20.25;;;13.35;;
37409;SDS011;23275;48.914;12.566;2024-03-23T04:28:42;21.73;;;14.07;;
37409;SDS011;23275;48.914;12.566;2024-03-23T04:31:08;18.95;;;12.07;;
37409;SDS011;23275;48.914;12.566;2024-03-23T04:33:34;22.17;;;13.95;;
37409;SDS011;23275;48.914;12.566;2024-03-23T04:36:00;19.63;;;12.38;;
37409;SDS011;23275;48.914;12.566;2024-03-23T04:38:25;17.90;;;12.45;;
37409;SDS011;23275;48.914;12.566;2024-03-23T04:40:57;23.15;;;13.95;;
37409;SDS011;23275;48.914;12.566;2024-03-23T04:43:23;18.92;;;12.07;;
37409;SDS011;23275;48.914;12.566;2024-03-23T04:45:49;18.38;;;11.73;;
37409;SDS011;23275;48.914;12.566;2024-03-23T04:48:15;16.40;;;11.27;;
37409;SDS011;23275;48.914;12.566;2024-03-23T04:50:40;16.55;;;11.57;;
37409;SDS011;23275;48.914;12.566;2024-03-23T04:53:06;17.95;;;11.85;;
37409;SDS011;23275;48.914;12.566;2024-03-23T04:55:32;19.05;;;12.00;;
37409;SDS011;23275;48.914;12.566;2024-03-23T04:57:58;17.42;;;11.82;;
37409;SDS011;23275;48.914;12.566;2024-03-23T05:00:23;18.85;;;11.45;;
37409;SDS011;23275;48.914;12.566;2024-03-23T05:02:50;22.73;;;12.52;;
37409;SDS011;23275;48.914;12.566;2024-03-23T05:05:15;21.88;;;12.00;;
37409;SDS011;23275;48.914;12.566;2024-03-23T05:07:41;19.85;;;11.35;;
37409;SDS011;23275;48.914;12.566;2024-03-23T05:10:07;17.92;;;11.90;;
37409;SDS011;23275;48.914;12.566;2024-03-23T05:12:36;15.45;;;10.77;;
37409;SDS011;23275;48.914;12.566;2024-03-23T05:15:02;21.23;;;11.65;;
37409;SDS011;23275;48.914;12.566;2024-03-23T05:17:29;17.63;;;10.43;;
37409;SDS011;23275;48.914;12.566;2024-03-23T05:19:55;17.50;;;11.15;;
37409;SDS011;23275;48.914;12.566;2024-03-23T05:22:22;15.85;;;10.95;;
37409;SDS011;23275;48.914;12.566;2024-03-23T05:24:48;17.50;;;12.18;;
37409;SDS011;23275;48.914;12.566;2024-03-23T05:27:13;18.40;;;10.52;;
37409;SDS011;23275;48.914;12.566;2024-03-23T05:29:40;17.65;;;10.50;;
37409;SDS011;23275;48.914;12.566;2024-03-23T05:32:05;17.52;;;11.70;;
37409;SDS011;23275;48.914;12.566;2024-03-23T05:34:31;19.45;;;10.98;;
37409;SDS011;23275;48.914;12.566;2024-03-23T05:36:56;16.98;;;11.15;;
37409;SDS011;23275;48.914;12.566;2024-03-23T05:39:22;16.08;;;10.98;;
37409;SDS011;23275;48.914;12.566;2024-03-23T05:41:48;14.18;;;9.43;;
37409;SDS011;23275;48.914;12.566;2024-03-23T05:44:14;15.88;;;10.20;;
37409;SDS011;23275;48.914;12.566;2024-03-23T05:46:40;15.82;;;9.55;;
37409;SDS011;23275;48.914;12.566;2024-03-23T05:49:06;15.32;;;10.45;;
37409;SDS011;23275;48.914;12.566;2024-03-23T05:51:31;15.05;;;10.20;;
37409;SDS011;23275;48.914;12.566;2024-03-23T05:53:57;16.27;;;9.65;;
37409;SDS011;23275;48.914;12.566;2024-03-23T05:56:22;15.25;;;9.73;;
37409;SDS011;23275;48.914;12.566;2024-03-23T05:58:48;15.00;;;9.15;;
37409;SDS011;23275;48.914;12.566;2024-03-23T06:01:13;18.27;;;10.60;;
37409;SDS011;23275;48.914;12.566;2024-03-23T06:03:39;15.75;;;9.07;;
37409;SDS011;23275;48.914;12.566;2024-03-23T06:06:05;12.60;;;9.02;;
37409;SDS011;23275;48.914;12.566;2024-03-23T06:08:35;15.77;;;9.43;;
37409;SDS011;23275;48.914;12.566;2024-03-23T06:11:01;16.00;;;8.80;;
37409;SDS011;23275;48.914;12.566;2024-03-23T06:13:26;14.55;;;8.88;;
37409;SDS011;23275;48.914;12.566;2024-03-23T06:15:55;13.65;;;7.68;;
37409;SDS011;23275;48.914;12.566;2024-03-23T06:18:20;14.07;;;9.43;;
37409;SDS011;23275;48.914;12.566;2024-03-23T06:20:46;15.07;;;9.70;;
37409;SDS011;23275;48.914;12.566;2024-03-23T06:23:11;15.52;;;9.25;;
37409;SDS011;23275;48.914;12.566;2024-03-23T06:25:38;15.65;;;8.63;;
37409;SDS011;23275;48.914;12.566;2024-03-23T06:28:03;15.30;;;9.30;;
37409;SDS011;23275;48.914;12.566;2024-03-23T06:30:29;13.57;;;9.60;;
37409;SDS011;23275;48.914;12.566;2024-03-23T06:32:56;14.77;;;8.32;;
37409;SDS011;23275;48.914;12.566;2024-03-23T06:35:22;13.50;;;8.80;;
37409;SDS011;23275;48.914;12.566;2024-03-23T06:37:48;13.77;;;8.90;;
37409;SDS011;23275;48.914;12.566;2024-03-23T06:40:13;12.98;;;9.32;;
37409;SDS011;23275;48.914;12.566;2024-03-23T06:42:39;13.70;;;9.05;;
37409;SDS011;23275;48.914;12.566;2024-03-23T06:45:05;13.32;;;8.90;;
37409;SDS011;23275;48.914;12.566;2024-03-23T06:47:31;19.52;;;11.00;;
37409;SDS011;23275;48.914;12.566;2024-03-23T06:49:57;13.02;;;8.52;;
37409;SDS011;23275;48.914;12.566;2024-03-23T06:52:27;14.32;;;9.50;;
37409;SDS011;23275;48.914;12.566;2024-03-23T06:54:53;11.77;;;7.95;;
37409;SDS011;23275;48.914;12.566;2024-03-23T06:57:18;13.80;;;7.88;;
37409;SDS011;23275;48.914;12.566;2024-03-23T06:59:44;12.27;;;7.32;;
37409;SDS011;23275;48.914;12.566;2024-03-23T07:02:10;10.10;;;7.20;;
37409;SDS011;23275;48.914;12.566;2024-03-23T07:04:35;13.70;;;6.88;;
37409;SDS011;23275;48.914;12.566;2024-03-23T07:07:02;8.77;;;6.63;;
37409;SDS011;23275;48.914;12.566;2024-03-23T07:09:28;11.32;;;7.15;;
37409;SDS011;23275;48.914;12.566;2024-03-23T07:11:54;11.70;;;6.55;;
37409;SDS011;23275;48.914;12.566;2024-03-23T07:14:21;11.93;;;7.10;;
37409;SDS011;23275;48.914;12.566;2024-03-23T07:16:47;9.98;;;5.90;;
37409;SDS011;23275;48.914;12.566;2024-03-23T07:19:14;9.10;;;5.85;;
37409;SDS011;23275;48.914;12.566;2024-03-23T07:21:41;11.35;;;6.45;;
37409;SDS011;23275;48.914;12.566;2024-03-23T07:24:07;11.07;;;6.45;;
37409;SDS011;23275;48.914;12.566;2024-03-23T07:26:33;11.60;;;6.45;;
37409;SDS011;23275;48.914;12.566;2024-03-23T07:28:59;10.05;;;6.10;;
37409;SDS011;23275;48.914;12.566;2024-03-23T07:31:24;11.02;;;5.75;;
37409;SDS011;23275;48.914;12.566;2024-03-23T07:33:50;9.35;;;6.10;;
37409;SDS011;23275;48.914;12.566;2024-03-23T07:36:15;8.13;;;5.38;;
37409;SDS011;23275;48.914;12.566;2024-03-23T07:38:41;6.93;;;4.70;;
37409;SDS011;23275;48.914;12.566;2024-03-23T07:41:16;8.57;;;5.20;;
37409;SDS011;23275;48.914;12.566;2024-03-23T07:43:46;8.63;;;5.13;;
37409;SDS011;23275;48.914;12.566;2024-03-23T07:46:12;7.93;;;4.78;;
37409;SDS011;23275;48.914;12.566;2024-03-23T07:48:39;6.72;;;4.55;;
37409;SDS011;23275;48.914;12.566;2024-03-23T07:51:08;10.45;;;4.70;;
37409;SDS011;23275;48.914;12.566;2024-03-23T07:53:35;7.30;;;5.05;;
37409;SDS011;23275;48.914;12.566;2024-03-23T07:56:05;6.03;;;4.03;;
37409;SDS011;23275;48.914;12.566;2024-03-23T07:58:32;7.28;;;4.07;;
37409;SDS011;23275;48.914;12.566;2024-03-23T08:01:05;8.18;;;5.10;;
37409;SDS011;23275;48.914;12.566;2024-03-23T08:03:32;8.77;;;4.85;;
37409;SDS011;23275;48.914;12.566;2024-03-23T08:06:06;6.05;;;4.28;;
37409;SDS011;23275;48.914;12.566;2024-03-23T08:08:32;7.38;;;4.32;;
37409;SDS011;23275;48.914;12.566;2024-03-23T08:10:58;8.48;;;5.10;;
37409;SDS011;23275;48.914;12.566;2024-03-23T08:13:23;7.22;;;4.43;;
37409;SDS011;23275;48.914;12.566;2024-03-23T08:15:49;9.43;;;4.95;;
37409;SDS011;23275;48.914;12.566;2024-03-23T08:18:14;11.85;;;6.00;;
37409;SDS011;23275;48.914;12.566;2024-03-23T08:20:43;9.68;;;5.80;;
37409;SDS011;23275;48.914;12.566;2024-03-23T08:23:08;11.10;;;5.75;;
37409;SDS011;23275;48.914;12.566;2024-03-23T08:25:34;8.40;;;5.28;;
37409;SDS011;23275;48.914;12.566;2024-03-23T08:28:00;6.85;;;4.25;;
37409;SDS011;23275;48.914;12.566;2024-03-23T08:30:26;8.52;;;4.30;;
37409;SDS011;23275;48.914;12.566;2024-03-23T08:32:51;10.00;;;4.70;;
37409;SDS011;23275;48.914;12.566;2024-03-23T08:35:17;8.50;;;4.80;;
37409;SDS011;23275;48.914;12.566;2024-03-23T08:37:43;7.45;;;4.43;;
37409;SDS011;23275;48.914;12.566;2024-03-23T08:40:08;9.55;;;5.25;;
37409;SDS011;23275;48.914;12.566;2024-03-23T08:42:35;7.30;;;4.53;;
37409;SDS011;23275;48.914;12.566;2024-03-23T08:45:00;10.15;;;5.03;;
37409;SDS011;23275;48.914;12.566;2024-03-23T08:47:26;8.32;;;4.15;;
37409;SDS011;23275;48.914;12.566;2024-03-23T08:49:51;7.18;;;5.22;;
37409;SDS011;23275;48.914;12.566;2024-03-23T08:52:17;6.13;;;3.95;;
37409;SDS011;23275;48.914;12.566;2024-03-23T08:54:43;7.32;;;3.83;;
37409;SDS011;23275;48.914;12.566;2024-03-23T08:57:09;8.25;;;3.78;;
37409;SDS011;23275;48.914;12.566;2024-03-23T08:59:34;7.22;;;5.18;;
37409;SDS011;23275;48.914;12.566;2024-03-23T09:02:00;10.07;;;5.65;;
37409;SDS011;23275;48.914;12.566;2024-03-23T09:04:26;4.57;;;2.67;;
37409;SDS011;23275;48.914;12.566;2024-03-23T09:06:51;6.35;;;2.88;;
37409;SDS011;23275;48.914;12.566;2024-03-23T09:09:17;7.90;;;4.40;;
37409;SDS011;23275;48.914;12.566;2024-03-23T09:11:42;8.93;;;4.28;;
37409;SDS011;23275;48.914;12.566;2024-03-23T09:14:08;7.82;;;3.75;;
37409;SDS011;23275;48.914;12.566;2024-03-23T09:16:34;6.88;;;3.80;;
37409;SDS011;23275;48.914;12.566;2024-03-23T09:19:00;11.23;;;6.03;;
37409;SDS011;23275;48.914;12.566;2024-03-23T09:21:25;6.10;;;2.83;;
37409;SDS011;23275;48.914;12.566;2024-03-23T09:23:51;5.25;;;2.70;;
37409;SDS011;23275;48.914;12.566;2024-03-23T09:26:17;6.57;;;3.22;;
37409;SDS011;23275;48.914;12.566;2024-03-23T09:28:42;9.65;;;5.65;;
37409;SDS011;23275;48.914;12.566;2024-03-23T09:31:08;7.20;;;4.35;;
37409;SDS011;23275;48.914;12.566;2024-03-23T09:33:36;7.40;;;3.28;;
37409;SDS011;23275;48.914;12.566;2024-03-23T09:36:05;5.97;;;3.28;;
37409;SDS011;23275;48.914;12.566;2024-03-23T09:38:31;16.80;;;7.75;;
37409;SDS011;23275;48.914;12.566;2024-03-23T09:40:58;5.38;;;2.88;;
37409;SDS011;23275;48.914;12.566;2024-03-23T09:43:24;6.32;;;3.60;;
37409;SDS011;23275;48.914;12.566;2024-03-23T09:45:50;8.00;;;4.18;;
37409;SDS011;23275;48.914;12.566;2024-03-23T09:48:16;13.32;;;5.60;;
37409;SDS011;23275;48.914;12.566;2024-03-23T09:50:43;10.38;;;6.32;;
37409;SDS011;23275;48.914;12.566;2024-03-23T09:53:10;6.68;;;4.03;;
37409;SDS011;23275;48.914;12.566;2024-03-23T09:55:37;5.15;;;3.05;;
37409;SDS011;23275;48.914;12.566;2024-03-23T09:58:03;6.32;;;3.53;;
37409;SDS011;23275;48.914;12.566;2024-03-23T10:00:33;7.07;;;4.25;;
37409;SDS011;23275;48.914;12.566;2024-03-23T10:02:59;6.50;;;3.55;;
37409;SDS011;23275;48.914;12.566;2024-03-23T10:05:30;4.85;;;3.00;;
37409;SDS011;23275;48.914;12.566;2024-03-23T10:08:17;31.27;;;17.27;;
37409;SDS011;23275;48.914;12.566;2024-03-23T10:10:46;6.22;;;3.35;;
37409;SDS011;23275;48.914;12.566;2024-03-23T10:13:25;6.53;;;3.15;;
37409;SDS011;23275;48.914;12.566;2024-03-23T10:15:55;6.28;;;3.80;;
37409;SDS011;23275;48.914;12.566;2024-03-23T10:18:22;6.00;;;3.00;;
37409;SDS011;23275;48.914;12.566;2024-03-23T10:20:52;7.57;;;3.92;;
37409;SDS011;23275;48.914;12.566;2024-03-23T10:23:31;20.88;;;11.18;;
37409;SDS011;23275;48.914;12.566;2024-03-23T10:28:52;9.85;;;6.18;;
37409;SDS011;23275;48.914;12.566;2024-03-23T10:31:36;13.23;;;6.45;;
37409;SDS011;23275;48.914;12.566;2024-03-23T10:34:02;60.92;;;30.45;;
37409;SDS011;23275;48.914;12.566;2024-03-23T10:36:29;23.25;;;13.13;;
37409;SDS011;23275;48.914;12.566;2024-03-23T10:38:55;34.10;;;17.45;;
37409;SDS011;23275;48.914;12.566;2024-03-23T10:41:24;37.53;;;19.27;;
37409;SDS011;23275;48.914;12.566;2024-03-23T10:43:52;33.22;;;16.02;;
37409;SDS011;23275;48.914;12.566;2024-03-23T10:46:20;19.38;;;10.82;;
37409;SDS011;23275;48.914;12.566;2024-03-23T10:48:46;6.50;;;3.10;;
37409;SDS011;23275;48.914;12.566;2024-03-23T10:51:12;3.50;;;1.80;;
37409;SDS011;23275;48.914;12.566;2024-03-23T10:53:39;3.10;;;1.55;;
37409;SDS011;23275;48.914;12.566;2024-03-23T10:56:05;2.28;;;1.10;;
37409;SDS011;23275;48.914;12.566;2024-03-23T11:05:59;2.57;;;1.20;;
37409;SDS011;23275;48.914;12.566;2024-03-23T11:08:35;1.73;;;0.88;;
37409;SDS011;23275;48.914;12.566;2024-03-23T11:11:18;2.05;;;0.98;;
37409;SDS011;23275;48.914;12.566;2024-03-23T11:13:52;1.48;;;0.90;;
37409;SDS011;23275;48.914;12.566;2024-03-23T11:16:22;1.55;;;0.98;;
37409;SDS011;23275;48.914;12.566;2024-03-23T11:22:01;1.30;;;0.68;;
37409;SDS011;23275;48.914;12.566;2024-03-23T11:24:27;1.00;;;0.70;;
37409;SDS011;23275;48.914;12.566;2024-03-23T11:26:52;0.93;;;0.50;;
37409;SDS011;23275;48.914;12.566;2024-03-23T11:29:18;2.15;;;0.60;;
37409;SDS011;23275;48.914;12.566;2024-03-23T11:31:47;2.25;;;0.40;;
37409;SDS011;23275;48.914;12.566;2024-03-23T11:34:15;0.50;;;0.40;;
37409;SDS011;23275;48.914;12.566;2024-03-23T11:36:41;1.08;;;0.43;;
37409;SDS011;23275;48.914;12.566;2024-03-23T11:39:13;0.63;;;0.30;;
37409;SDS011;23275;48.914;12.566;2024-03-23T11:41:48;0.43;;;0.30;;
37409;SDS011;23275;48.914;12.566;2024-03-23T11:44:21;3.30;;;0.50;;
37409;SDS011;23275;48.914;12.566;2024-03-23T11:46:48;0.60;;;0.40;;
37409;SDS011;23275;48.914;12.566;2024-03-23T11:51:46;0.85;;;0.40;;
37409;SDS011;23275;48.914;12.566;2024-03-23T11:54:13;0.68;;;0.30;;
37409;SDS011;23275;48.914;12.566;2024-03-23T11:56:38;0.70;;;0.40;;
37409;SDS011;23275;48.914;12.566;2024-03-23T11:59:04;2.45;;;1.13;;
37409;SDS011;23275;48.914;12.566;2024-03-23T12:01:31;0.88;;;0.45;;
37409;SDS011;23275;48.914;12.566;2024-03-23T12:03:56;0.85;;;0.40;;
37409;SDS011;23275;48.914;12.566;2024-03-23T12:06:22;0.50;;;0.32;;
37409;SDS011;23275;48.914;12.566;2024-03-23T12:08:47;2.15;;;0.52;;
37409;SDS011;23275;48.914;12.566;2024-03-23T12:11:14;0.93;;;0.50;;
37409;SDS011;23275;48.914;12.566;2024-03-23T12:13:44;0.90;;;0.40;;
37409;SDS011;23275;48.914;12.566;2024-03-23T12:18:42;1.60;;;0.50;;
37409;SDS011;23275;48.914;12.566;2024-03-23T12:21:12;1.38;;;0.60;;
37409;SDS011;23275;48.914;12.566;2024-03-23T12:23:41;1.08;;;0.50;;
37409;SDS011;23275;48.914;12.566;2024-03-23T12:26:09;1.10;;;0.52;;
37409;SDS011;23275;48.914;12.566;2024-03-23T12:28:35;0.95;;;0.57;;
37409;SDS011;23275;48.914;12.566;2024-03-23T12:31:00;2.92;;;0.70;;
37409;SDS011;23275;48.914;12.566;2024-03-23T12:33:26;1.83;;;0.50;;
37409;SDS011;23275;48.914;12.566;2024-03-23T12:35:51;1.48;;;0.60;;
37409;SDS011;23275;48.914;12.566;2024-03-23T12:38:17;1.48;;;0.70;;
37409;SDS011;23275;48.914;12.566;2024-03-23T12:40:47;1.05;;;0.50;;
37409;SDS011;23275;48.914;12.566;2024-03-23T12:43:13;2.50;;;0.63;;
37409;SDS011;23275;48.914;12.566;2024-03-23T12:45:39;0.93;;;0.50;;
37409;SDS011;23275;48.914;12.566;2024-03-23T12:48:04;0.70;;;0.30;;
37409;SDS011;23275;48.914;12.566;2024-03-23T12:50:30;0.70;;;0.35;;
37409;SDS011;23275;48.914;12.566;2024-03-23T12:52:56;0.90;;;0.40;;
37409;SDS011;23275;48.914;12.566;2024-03-23T12:55:21;0.60;;;0.40;;
37409;SDS011;23275;48.914;12.566;2024-03-23T12:57:47;2.15;;;0.30;;
37409;SDS011;23275;48.914;12.566;2024-03-23T13:00:13;1.35;;;0.60;;
37409;SDS011;23275;48.914;12.566;2024-03-23T13:02:40;1.95;;;0.63;;
37409;SDS011;23275;48.914;12.566;2024-03-23T13:05:06;1.25;;;0.50;;
37409;SDS011;23275;48.914;12.566;2024-03-23T13:07:33;0.90;;;0.45;;
37409;SDS011;23275;48.914;12.566;2024-03-23T13:10:00;1.70;;;0.60;;
37409;SDS011;23275;48.914;12.566;2024-03-23T13:12:25;0.88;;;0.50;;
37409;SDS011;23275;48.914;12.566;2024-03-23T13:14:51;4.28;;;1.00;;
37409;SDS011;23275;48.914;12.566;2024-03-23T13:17:17;2.00;;;0.65;;
37409;SDS011;23275;48.914;12.566;2024-03-23T13:19:42;3.28;;;1.00;;
37409;SDS011;23275;48.914;12.566;2024-03-23T13:22:08;2.10;;;0.73;;
37409;SDS011;23275;48.914;12.566;2024-03-23T13:24:36;2.03;;;0.80;;
37409;SDS011;23275;48.914;12.566;2024-03-23T13:27:02;3.70;;;0.88;;
37409;SDS011;23275;48.914;12.566;2024-03-23T13:29:29;3.33;;;0.88;;
37409;SDS011;23275;48.914;12.566;2024-03-23T13:31:55;2.55;;;0.98;;
37409;SDS011;23275;48.914;12.566;2024-03-23T13:34:20;1.83;;;1.00;;
37409;SDS011;23275;48.914;12.566;2024-03-23T13:36:46;2.30;;;1.05;;
37409;SDS011;23275;48.914;12.566;2024-03-23T13:39:12;4.88;;;1.60;;
37409;SDS011;23275;48.914;12.566;2024-03-23T13:44:08;4.05;;;2.00;;
37409;SDS011;23275;48.914;12.566;2024-03-23T13:46:38;3.65;;;1.20;;
37409;SDS011;23275;48.914;12.566;2024-03-23T13:49:05;2.13;;;1.15;;
37409;SDS011;23275;48.914;12.566;2024-03-23T13:51:31;3.97;;;1.27;;
37409;SDS011;23275;48.914;12.566;2024-03-23T13:53:57;2.75;;;1.40;;
37409;SDS011;23275;48.914;12.566;2024-03-23T13:56:26;1.88;;;0.70;;
37409;SDS011;23275;48.914;12.566;2024-03-23T13:58:53;3.28;;;1.10;;
37409;SDS011;23275;48.914;12.566;2024-03-23T14:01:19;5.97;;;1.35;;
37409;SDS011;23275;48.914;12.566;2024-03-23T14:03:44;2.78;;;1.13;;
37409;SDS011;23275;48.914;12.566;2024-03-23T14:06:10;2.67;;;1.00;;
37409;SDS011;23275;48.914;12.566;2024-03-23T14:08:36;2.83;;;0.90;;
37409;SDS011;23275;48.914;12.566;2024-03-23T14:11:07;3.83;;;1.00;;
37409;SDS011;23275;48.914;12.566;2024-03-23T14:13:34;2.17;;;0.80;;
37409;SDS011;23275;48.914;12.566;2024-03-23T14:16:00;5.07;;;2.20;;
37409;SDS011;23275;48.914;12.566;2024-03-23T14:18:26;5.45;;;2.53;;
37409;SDS011;23275;48.914;12.566;2024-03-23T14:20:52;5.85;;;3.22;;
37409;SDS011;23275;48.914;12.566;2024-03-23T14:23:28;4.30;;;2.30;;
37409;SDS011;23275;48.914;12.566;2024-03-23T14:25:55;5.07;;;2.73;;
37409;SDS011;23275;48.914;12.566;2024-03-23T14:28:21;4.95;;;2.05;;
37409;SDS011;23275;48.914;12.566;2024-03-23T14:30:48;2.63;;;1.10;;
37409;SDS011;23275;48.914;12.566;2024-03-23T14:33:14;2.20;;;1.00;;
37409;SDS011;23275;48.914;12.566;2024-03-23T14:35:41;2.13;;;0.98;;
37409;SDS011;23275;48.914;12.566;2024-03-23T14:38:06;3.38;;;1.38;;
37409;SDS011;23275;48.914;12.566;2024-03-23T14:40:32;3.22;;;1.20;;
37409;SDS011;23275;48.914;12.566;2024-03-23T14:42:58;4.30;;;1.40;;
37409;SDS011;23275;48.914;12.566;2024-03-23T14:45:23;3.45;;;1.42;;
37409;SDS011;23275;48.914;12.566;2024-03-23T14:47:50;3.28;;;0.82;;
37409;SDS011;23275;48.914;12.566;2024-03-23T14:50:16;5.88;;;2.30;;
37409;SDS011;23275;48.914;12.566;2024-03-23T14:52:45;4.90;;;2.03;;
37409;SDS011;23275;48.914;12.566;2024-03-23T14:55:11;3.90;;;1.25;;
37409;SDS011;23275;48.914;12.566;2024-03-23T14:57:37;5.93;;;1.45;;
37409;SDS011;23275;48.914;12.566;2024-03-23T15:00:09;2.67;;;1.38;;
37409;SDS011;23275;48.914;12.566;2024-03-23T15:02:36;4.78;;;1.50;;
37409;SDS011;23275;48.914;12.566;2024-03-23T15:05:02;6.38;;;2.28;;
37409;SDS011;23275;48.914;12.566;2024-03-23T15:07:29;4.53;;;1.48;;
37409;SDS011;23275;48.914;12.566;2024-03-23T15:09:55;4.63;;;1.83;;
37409;SDS011;23275;48.914;12.566;2024-03-23T15:12:21;5.53;;;2.35;;
37409;SDS011;23275;48.914;12.566;2024-03-23T15:14:47;11.63;;;3.17;;
37409;SDS011;23275;48.914;12.566;2024-03-23T15:17:13;9.85;;;4.70;;
37409;SDS011;23275;48.914;12.566;2024-03-23T15:19:38;6.70;;;2.28;;
37409;SDS011;23275;48.914;12.566;2024-03-23T15:22:05;7.93;;;2.28;;
37409;SDS011;23275;48.914;12.566;2024-03-23T15:24:30;4.35;;;1.40;;
37409;SDS011;23275;48.914;12.566;2024-03-23T15:26:56;5.32;;;1.50;;
37409;SDS011;23275;48.914;12.566;2024-03-23T15:29:22;3.58;;;1.40;;
37409;SDS011;23275;48.914;12.566;2024-03-23T15:31:48;4.72;;;1.55;;
37409;SDS011;23275;48.914;12.566;2024-03-23T15:34:17;14.18;;;6.00;;
37409;SDS011;23275;48.914;12.566;2024-03-23T15:36:48;11.07;;;6.40;;